Terminal Aerodrome Forecast
Issued by NWS

Home | Current Version | Previous Version | Text Only | Print | Product List | Glossary On
Versions: 1 2 3 4 5 6 7 8 9 10 11 12 13 14 15 16
000
FTUS43 KICT 181700
TAFCNU
TAF
KCNU 181720Z 1818/1918 02014KT P6SM SCT250
     FM182300 07007KT P6SM SCT035 SCT250
     FM190600 09005KT P6SM BKN250=

USA.gov is the U.S. government's official web portal to all federal, state and local government web resources and services.